Aviation Digital Data Service (ADDS)

Output produced by METARs form (1347 UTC 13 December 2019)
found at http://www.aviationweather.gov/metar/data/
 
LFRN 131330Z AUTO 25013KT 9999 BKN033 BKN043 OVC060 10/05 Q0995 TEMPO 27020G30KT SHRA
TAF LFRN 131100Z 1312/1412 27020G30KT 9999 BKN030 
     TEMPO 1312/1317 5000 SHRA 
     BECMG 1315/1317 24010KT 
     TEMPO 1317/1320 4000 RA BKN006 
     BECMG 1318/1320 25020G35KT 
     TEMPO 1320/1402 4000 SHRA BKN012 
     TEMPO 1322/1402 27025G50KT 
     BECMG 1402/1404 25013KT 
     PROB30 
     TEMPO 1402/1409 5000 SHRA 
     TEMPO 1409/1412 4000 SHRA BKN015TCU